Terminal Aerodrome Forecast
Issued by NWS

Home | Current Version | Previous Version | Graphics & Text | Print | Product List | Glossary On
Versions: 1 2 3 4 5 6 7 8 9 10 11 12 13 14 15 16 17 18 19 20 21 22 23
000
FTUS42 KMHX 280500
TAFOAJ
TAF
KOAJ 280533Z 2806/2906 21008KT P6SM SCT040 BKN150
     FM281400 25011G17KT P6SM SCT040
     FM282000 25009KT P6SM VCTS SCT025 BKN040CB
     FM290300 35005KT P6SM SCT040
      AMD LTD TO CLD VIS AND WIND=

USA.gov is the U.S. government's official web portal to all federal, state and local government web resources and services.